<?xml version='1.0' encoding='UTF-8'?><gpx version="1.1" creator="JPX - https://github.com/jenetics/jpx" xmlns="http://www.topografix.com/GPX/1/1"><trk><trkseg><trkpt lat="40.84344846165183" lon="14.582244812531135"><ele>325.0</ele><time>2026-04-12T08:53:51.001Z</time></trkpt><trkpt lat="40.843445219968864" lon="14.582139306383482"><ele>325.0</ele><time>2026-04-12T08:53:53.001Z</time></trkpt><trkpt lat="40.84344625462566" lon="14.582024649452908"><ele>325.0</ele><time>2026-04-12T08:53:55.001Z</time></trkpt><trkpt lat="40.843441245875816" lon="14.581901400309107"><ele>325.0</ele><time>2026-04-12T08:53:57.001Z</time></trkpt><trkpt lat="40.84345966068571" lon="14.58177714104546"><ele>325.0</ele><time>2026-04-12T08:53:59.001Z</time></trkpt><trkpt lat="40.84348381134748" lon="14.581669285937968"><ele>325.0</ele><time>2026-04-12T08:54:01.001Z</time></trkpt><trkpt lat="40.84352298238752" lon="14.581577354411012"><ele>326.8333333333333</ele><time>2026-04-12T08:54:03.001Z</time></trkpt><trkpt lat="40.843540561381154" lon="14.581494489947506"><ele>328.66666666666663</ele><time>2026-04-12T08:54:05.001Z</time></trkpt><trkpt lat="40.843544731393706" lon="14.581404730970137"><ele>330.5</ele><time>2026-04-12T08:54:07.001Z</time></trkpt><trkpt lat="40.843559920493725" lon="14.58129107898069"><ele>332.3333333333333</ele><time>2026-04-12T08:54:09.001Z</time></trkpt><trkpt lat="40.843581973273054" lon="14.581191211634854"><ele>334.1666666666667</ele><time>2026-04-12T08:54:11.001Z</time></trkpt><trkpt lat="40.84360056696795" lon="14.581097103894045"><ele>336.0</ele><time>2026-04-12T08:54:13.001Z</time></trkpt><trkpt lat="40.843617769825265" lon="14.580976916590549"><ele>336.0</ele><time>2026-04-12T08:54:15.001Z</time></trkpt><trkpt lat="40.84363254617422" lon="14.580871055652095"><ele>336.0</ele><time>2026-04-12T08:54:17.001Z</time></trkpt><trkpt lat="40.84367487022557" lon="14.5808027519757"><ele>336.0</ele><time>2026-04-12T08:54:24.001Z</time></trkpt><trkpt lat="40.84373877761612" lon="14.58063686802299"><ele>336.0</ele><time>2026-04-12T08:54:26.001Z</time></trkpt><trkpt lat="40.8437762481009" lon="14.580533805068436"><ele>336.0</ele><time>2026-04-12T08:54:27.001Z</time></trkpt><trkpt lat="40.843840126642796" lon="14.580377040219219"><ele>336.0</ele><time>2026-04-12T08:54:29.001Z</time></trkpt><trkpt lat="40.84387772990495" lon="14.580284819293063"><ele>336.0</ele><time>2026-04-12T08:54:30.001Z</time></trkpt><trkpt lat="40.84392685932319" lon="14.58019006647101"><ele>336.0</ele><time>2026-04-12T08:54:32.001Z</time></trkpt><trkpt lat="40.84384956813203" lon="14.5802569650761"><ele>336.0</ele><time>2026-04-12T08:54:44.001Z</time></trkpt><trkpt lat="40.84378938766895" lon="14.58032952439473"><ele>336.0</ele><time>2026-04-12T08:54:46.001Z</time></trkpt><trkpt lat="40.84374412951701" lon="14.580398125539638"><ele>336.0</ele><time>2026-04-12T08:54:48.001Z</time></trkpt><trkpt lat="40.84369872166739" lon="14.580461819074676"><ele>336.0</ele><time>2026-04-12T08:54:50.001Z</time></trkpt><trkpt lat="40.843646533799664" lon="14.580520318459113"><ele>336.0</ele><time>2026-04-12T08:54:52.001Z</time></trkpt><trkpt lat="40.84358962363036" lon="14.580582451917872"><ele>336.0</ele><time>2026-04-12T08:54:54.001Z</time></trkpt><trkpt lat="40.84352786054156" lon="14.58065862682392"><ele>336.0</ele><time>2026-04-12T08:54:56.001Z</time></trkpt><trkpt lat="40.84346256165159" lon="14.580737401974407"><ele>336.0</ele><time>2026-04-12T08:54:58.001Z</time></trkpt><trkpt lat="40.84338502746346" lon="14.580826933966598"><ele>336.0</ele><time>2026-04-12T08:55:00.001Z</time></trkpt><trkpt lat="40.84332782393059" lon="14.58091073268792"><ele>332.1666666666667</ele><time>2026-04-12T08:55:02.001Z</time></trkpt><trkpt lat="40.843255820170675" lon="14.580985841267827"><ele>328.3333333333333</ele><time>2026-04-12T08:55:04.001Z</time></trkpt><trkpt lat="40.843175718185485" lon="14.581056019968415"><ele>324.5</ele><time>2026-04-12T08:55:06.001Z</time></trkpt><trkpt lat="40.843113325115766" lon="14.581107700900922"><ele>320.66666666666663</ele><time>2026-04-12T08:55:08.001Z</time></trkpt><trkpt lat="40.84306267934971" lon="14.581178525405909"><ele>316.8333333333333</ele><time>2026-04-12T08:55:10.001Z</time></trkpt><trkpt lat="40.84299804745955" lon="14.581280740290422"><ele>313.0</ele><time>2026-04-12T08:55:12.001Z</time></trkpt><trkpt lat="40.84291905578766" lon="14.581391464783422"><ele>313.0</ele><time>2026-04-12T08:55:14.001Z</time></trkpt><trkpt lat="40.842855939612775" lon="14.581495057546503"><ele>313.0</ele><time>2026-04-12T08:55:16.001Z</time></trkpt><trkpt lat="40.84280472925058" lon="14.58160457627455"><ele>313.0</ele><time>2026-04-12T08:55:18.001Z</time></trkpt><trkpt lat="40.842785351902684" lon="14.581743282927889"><ele>313.0</ele><time>2026-04-12T08:55:20.001Z</time></trkpt><trkpt lat="40.842761088691894" lon="14.581878583821721"><ele>313.0</ele><time>2026-04-12T08:55:22.001Z</time></trkpt><trkpt lat="40.84274456686265" lon="14.582023195895992"><ele>315.4</ele><time>2026-04-12T08:55:24.001Z</time></trkpt><trkpt lat="40.84273170045618" lon="14.582144917659484"><ele>317.8</ele><time>2026-04-12T08:55:26.001Z</time></trkpt><trkpt lat="40.84273057149986" lon="14.58225994738241"><ele>320.2</ele><time>2026-04-12T08:55:28.001Z</time></trkpt><trkpt lat="40.842712381861446" lon="14.582381119971304"><ele>322.6</ele><time>2026-04-12T08:55:30.001Z</time></trkpt><trkpt lat="40.84264099986806" lon="14.582419430640604"><ele>325.0</ele><time>2026-04-12T08:55:33.001Z</time></trkpt><trkpt lat="40.84253314995398" lon="14.582390421019943"><ele>317.0</ele><time>2026-04-12T08:55:35.001Z</time></trkpt><trkpt lat="40.842444799635054" lon="14.582414421419971"><ele>309.0</ele><time>2026-04-12T08:55:37.001Z</time></trkpt><trkpt lat="40.84235646652453" lon="14.582499336766235"><ele>301.0</ele><time>2026-04-12T08:55:39.001Z</time></trkpt><trkpt lat="40.84226448006447" lon="14.582569447708215"><ele>293.0</ele><time>2026-04-12T08:55:41.001Z</time></trkpt><trkpt lat="40.84219716791139" lon="14.582649689433989"><ele>285.0</ele><time>2026-04-12T08:55:43.001Z</time></trkpt><trkpt lat="40.84212563639855" lon="14.582768084664258"><ele>285.0</ele><time>2026-04-12T08:55:45.001Z</time></trkpt><trkpt lat="40.84208624313632" lon="14.58283324247469"><ele>285.0</ele><time>2026-04-12T08:55:46.001Z</time></trkpt><trkpt lat="40.842045042947305" lon="14.582897726790565"><ele>285.0</ele><time>2026-04-12T08:55:47.001Z</time></trkpt><trkpt lat="40.84200601019549" lon="14.582972748284655"><ele>285.0</ele><time>2026-04-12T08:55:48.001Z</time></trkpt><trkpt lat="40.841972780927534" lon="14.583044556454174"><ele>285.0</ele><time>2026-04-12T08:55:49.001Z</time></trkpt><trkpt lat="40.84192285432217" lon="14.583176629023633"><ele>285.0</ele><time>2026-04-12T08:55:51.001Z</time></trkpt><trkpt lat="40.84187434419802" lon="14.583261447495268"><ele>287.0</ele><time>2026-04-12T08:55:53.001Z</time></trkpt><trkpt lat="40.84180451170218" lon="14.583388800723355"><ele>289.0</ele><time>2026-04-12T08:56:03.001Z</time></trkpt><trkpt lat="40.84174653761483" lon="14.583504138070271"><ele>291.0</ele><time>2026-04-12T08:56:05.001Z</time></trkpt><trkpt lat="40.841713754396274" lon="14.58357907643778"><ele>293.0</ele><time>2026-04-12T08:56:06.001Z</time></trkpt><trkpt lat="40.84165065935919" lon="14.583707413772345"><ele>295.0</ele><time>2026-04-12T08:56:08.001Z</time></trkpt><trkpt lat="40.84161983877556" lon="14.583807029409625"><ele>295.0</ele><time>2026-04-12T08:56:10.001Z</time></trkpt><trkpt lat="40.84154056172135" lon="14.58390050769444"><ele>295.0</ele><time>2026-04-12T08:56:13.001Z</time></trkpt><trkpt lat="40.84144737459577" lon="14.583981752967775"><ele>295.0</ele><time>2026-04-12T08:56:15.001Z</time></trkpt><trkpt lat="40.84136670801286" lon="14.58407105744059"><ele>295.0</ele><time>2026-04-12T08:56:17.001Z</time></trkpt><trkpt lat="40.841297973428546" lon="14.58415457719689"><ele>295.0</ele><time>2026-04-12T08:56:19.001Z</time></trkpt><trkpt lat="40.84121285414214" lon="14.584261121688455"><ele>295.0</ele><time>2026-04-12T08:56:21.001Z</time></trkpt><trkpt lat="40.84117330222589" lon="14.584336581786443"><ele>295.0</ele><time>2026-04-12T08:56:22.001Z</time></trkpt><trkpt lat="40.84107575012058" lon="14.58445080687802"><ele>295.0</ele><time>2026-04-12T08:56:24.001Z</time></trkpt><trkpt lat="40.84097796590655" lon="14.584542414994141"><ele>295.0</ele><time>2026-04-12T08:56:26.001Z</time></trkpt><trkpt lat="40.84091172896543" lon="14.5846548726009"><ele>295.0</ele><time>2026-04-12T08:56:28.001Z</time></trkpt><trkpt lat="40.840919301873946" lon="14.584764412909628"><ele>294.3333333333333</ele><time>2026-04-12T08:56:30.001Z</time></trkpt><trkpt lat="40.840841177526116" lon="14.584820902118455"><ele>293.66666666666663</ele><time>2026-04-12T08:56:33.001Z</time></trkpt><trkpt lat="40.84078069036583" lon="14.58487166064295"><ele>293.0</ele><time>2026-04-12T08:56:35.001Z</time></trkpt><trkpt lat="40.840728015275005" lon="14.584938624880476"><ele>292.3333333333333</ele><time>2026-04-12T08:56:37.001Z</time></trkpt><trkpt lat="40.84079446159224" lon="14.584883237093527"><ele>291.6666666666667</ele><time>2026-04-12T08:58:21.001Z</time></trkpt><trkpt lat="40.84085516382259" lon="14.584825840169229"><ele>291.0</ele><time>2026-04-12T08:58:23.001Z</time></trkpt><trkpt lat="40.84090640810377" lon="14.584756979022421"><ele>291.0</ele><time>2026-04-12T08:58:25Z</time></trkpt><trkpt lat="40.84091919342228" lon="14.584665729792535"><ele>291.0</ele><time>2026-04-12T08:58:27Z</time></trkpt><trkpt lat="40.84097668174189" lon="14.584591746689851"><ele>291.0</ele><time>2026-04-12T08:58:29Z</time></trkpt><trkpt lat="40.841071940629945" lon="14.584516178529624"><ele>291.0</ele><time>2026-04-12T08:58:31Z</time></trkpt><trkpt lat="40.84114550896182" lon="14.58443129270739"><ele>291.0</ele><time>2026-04-12T08:58:33Z</time></trkpt><trkpt lat="40.84118402963863" lon="14.584354919629266"><ele>291.0</ele><time>2026-04-12T08:58:36Z</time></trkpt><trkpt lat="40.841231132405156" lon="14.584277524743117"><ele>291.8</ele><time>2026-04-12T08:58:38Z</time></trkpt><trkpt lat="40.84129902207493" lon="14.584182709803574"><ele>292.6</ele><time>2026-04-12T08:58:40Z</time></trkpt><trkpt lat="40.8413815996757" lon="14.584095629523276"><ele>293.4</ele><time>2026-04-12T08:58:42Z</time></trkpt><trkpt lat="40.84143579064656" lon="14.584047578100453"><ele>294.2</ele><time>2026-04-12T08:58:43Z</time></trkpt><trkpt lat="40.84152506464372" lon="14.583957805308327"><ele>295.0</ele><time>2026-04-12T08:58:45Z</time></trkpt><trkpt lat="40.84160912893431" lon="14.58388636407325"><ele>295.0</ele><time>2026-04-12T08:58:47Z</time></trkpt><trkpt lat="40.841624818288786" lon="14.583773770002098"><ele>295.0</ele><time>2026-04-12T08:58:59Z</time></trkpt><trkpt lat="40.84166495810474" lon="14.58370496955387"><ele>295.0</ele><time>2026-04-12T08:59:01Z</time></trkpt><trkpt lat="40.841738037811965" lon="14.583553025573691"><ele>295.0</ele><time>2026-04-12T08:59:03Z</time></trkpt><trkpt lat="40.8418051206393" lon="14.583424898399272"><ele>295.0</ele><time>2026-04-12T08:59:05Z</time></trkpt><trkpt lat="40.8418678235542" lon="14.583296006947815"><ele>296.66666666666663</ele><time>2026-04-12T08:59:07Z</time></trkpt><trkpt lat="40.84190684474786" lon="14.583205808257585"><ele>298.3333333333333</ele><time>2026-04-12T08:59:09Z</time></trkpt><trkpt lat="40.84191179926142" lon="14.583291321199406"><ele>300.0</ele><time>2026-04-12T08:59:26Z</time></trkpt><trkpt lat="40.84189744551798" lon="14.583415070177448"><ele>301.6666666666667</ele><time>2026-04-12T08:59:28Z</time></trkpt><trkpt lat="40.84188820223704" lon="14.583607238952373"><ele>303.33333333333337</ele><time>2026-04-12T08:59:32Z</time></trkpt><trkpt lat="40.841870665116204" lon="14.583687445135167"><ele>305.0</ele><time>2026-04-12T08:59:33Z</time></trkpt><trkpt lat="40.84183310504261" lon="14.583837004623419"><ele>303.0</ele><time>2026-04-12T08:59:35Z</time></trkpt><trkpt lat="40.841789601537464" lon="14.583984527003727"><ele>301.0</ele><time>2026-04-12T08:59:37Z</time></trkpt><trkpt lat="40.84172525131957" lon="14.584115808839773"><ele>299.0</ele><time>2026-04-12T08:59:39Z</time></trkpt><trkpt lat="40.8416720597219" lon="14.584236805395266"><ele>297.0</ele><time>2026-04-12T08:59:41Z</time></trkpt><trkpt lat="40.841689383053605" lon="14.584329061037492"><ele>295.0</ele><time>2026-04-12T08:59:44Z</time></trkpt><trkpt lat="40.84174493074297" lon="14.584276582150393"><ele>302.0</ele><time>2026-04-12T09:00:08Z</time></trkpt><trkpt lat="40.841799301769214" lon="14.584202715262231"><ele>309.0</ele><time>2026-04-12T09:00:10Z</time></trkpt><trkpt lat="40.84187388391027" lon="14.58410785884516"><ele>316.0</ele><time>2026-04-12T09:00:12Z</time></trkpt><trkpt lat="40.841995758132626" lon="14.58409014448164"><ele>323.0</ele><time>2026-04-12T09:00:14Z</time></trkpt><trkpt lat="40.84210888631648" lon="14.584083243985978"><ele>330.0</ele><time>2026-04-12T09:00:16Z</time></trkpt><trkpt lat="40.84220461927852" lon="14.58401843241878"><ele>330.0</ele><time>2026-04-12T09:00:18Z</time></trkpt><trkpt lat="40.842180578926744" lon="14.584170930805621"><ele>330.0</ele><time>2026-04-12T09:00:24Z</time></trkpt><trkpt lat="40.84215168484407" lon="14.584254355851282"><ele>330.0</ele><time>2026-04-12T09:00:25Z</time></trkpt><trkpt lat="40.842143906902365" lon="14.58433982499748"><ele>330.0</ele><time>2026-04-12T09:00:26Z</time></trkpt><trkpt lat="40.842129817884555" lon="14.584421132323564"><ele>330.0</ele><time>2026-04-12T09:00:27Z</time></trkpt><trkpt lat="40.842111471474425" lon="14.5845092982118"><ele>330.0</ele><time>2026-04-12T09:00:28Z</time></trkpt><trkpt lat="40.84207453213978" lon="14.58463965404339"><ele>334.0</ele><time>2026-04-12T09:00:30Z</time></trkpt><trkpt lat="40.842063174897355" lon="14.584753796973134"><ele>338.0</ele><time>2026-04-12T09:00:32Z</time></trkpt><trkpt lat="40.84213528389653" lon="14.584754877269765"><ele>342.0</ele><time>2026-04-12T09:00:35Z</time></trkpt><trkpt lat="40.84222860718977" lon="14.58466972742019"><ele>346.0</ele><time>2026-04-12T09:00:37Z</time></trkpt><trkpt lat="40.842326218803464" lon="14.584600428458856"><ele>350.0</ele><time>2026-04-12T09:00:39Z</time></trkpt><trkpt lat="40.84240508471572" lon="14.584535685301693"><ele>350.0</ele><time>2026-04-12T09:00:41Z</time></trkpt><trkpt lat="40.8424159785438" lon="14.584618029582536"><ele>350.0</ele><time>2026-04-12T09:01:35Z</time></trkpt><trkpt lat="40.84237855926189" lon="14.58474082930015"><ele>350.0</ele><time>2026-04-12T09:01:37Z</time></trkpt><trkpt lat="40.842355089571406" lon="14.584861276554372"><ele>350.0</ele><time>2026-04-12T09:01:39Z</time></trkpt><trkpt lat="40.84229934619683" lon="14.585016007560613"><ele>350.0</ele><time>2026-04-12T09:01:41Z</time></trkpt><trkpt lat="40.84224905796781" lon="14.585129139164973"><ele>350.0</ele><time>2026-04-12T09:01:43Z</time></trkpt><trkpt lat="40.84220506150132" lon="14.58519886953528"><ele>350.0</ele><time>2026-04-12T09:01:44Z</time></trkpt><trkpt lat="40.842141116822745" lon="14.585327024824227"><ele>350.0</ele><time>2026-04-12T09:01:46Z</time></trkpt><trkpt lat="40.84208299391514" lon="14.58546236823625"><ele>350.0</ele><time>2026-04-12T09:01:48Z</time></trkpt><trkpt lat="40.84204927135584" lon="14.585544044463319"><ele>350.0</ele><time>2026-04-12T09:01:49Z</time></trkpt><trkpt lat="40.84200588512356" lon="14.58567021116263"><ele>353.6666666666667</ele><time>2026-04-12T09:01:51Z</time></trkpt><trkpt lat="40.84199502753876" lon="14.585768811908114"><ele>357.33333333333337</ele><time>2026-04-12T09:01:53Z</time></trkpt><trkpt lat="40.8420242637036" lon="14.585847695295623"><ele>361.0</ele><time>2026-04-12T09:01:56Z</time></trkpt><trkpt lat="40.842094025543105" lon="14.585796226934193"><ele>364.6666666666667</ele><time>2026-04-12T09:01:58Z</time></trkpt><trkpt lat="40.84218745984737" lon="14.58571063589454"><ele>368.3333333333333</ele><time>2026-04-12T09:02:00Z</time></trkpt><trkpt lat="40.84228004120777" lon="14.585667915175625"><ele>372.0</ele><time>2026-04-12T09:02:02Z</time></trkpt><trkpt lat="40.84230238884784" lon="14.585756646549255"><ele>372.0</ele><time>2026-04-12T09:02:06Z</time></trkpt><trkpt lat="40.84223889968715" lon="14.585882843499006"><ele>372.0</ele><time>2026-04-12T09:02:08Z</time></trkpt><trkpt lat="40.84220315977077" lon="14.586020611815508"><ele>372.0</ele><time>2026-04-12T09:02:10Z</time></trkpt><trkpt lat="40.842213055567605" lon="14.586164606980761"><ele>372.0</ele><time>2026-04-12T09:02:12Z</time></trkpt><trkpt lat="40.842253075092415" lon="14.58627537095195"><ele>372.0</ele><time>2026-04-12T09:02:14Z</time></trkpt><trkpt lat="40.8422389845635" lon="14.586364742047273"><ele>375.40000000000003</ele><time>2026-04-12T09:02:17Z</time></trkpt><trkpt lat="40.84226616002041" lon="14.586574681351347"><ele>378.8</ele><time>2026-04-12T09:02:18Z</time></trkpt><trkpt lat="40.84225599544627" lon="14.586688898290355"><ele>382.2</ele><time>2026-04-12T09:02:20Z</time></trkpt><trkpt lat="40.84220846547855" lon="14.586765559842819"><ele>385.6</ele><time>2026-04-12T09:02:22Z</time></trkpt><trkpt lat="40.842135426583" lon="14.586857969722836"><ele>389.0</ele><time>2026-04-12T09:02:24Z</time></trkpt><trkpt lat="40.84208639478099" lon="14.586924926555696"><ele>388.99999999999994</ele><time>2026-04-12T09:02:26Z</time></trkpt><trkpt lat="40.84202772191707" lon="14.586978472939887"><ele>389.0</ele><time>2026-04-12T09:02:29Z</time></trkpt><trkpt lat="40.84196805448577" lon="14.587069428140111"><ele>389.0</ele><time>2026-04-12T09:02:31Z</time></trkpt><trkpt lat="40.84189941836339" lon="14.587148009918566"><ele>389.0</ele><time>2026-04-12T09:02:34Z</time></trkpt><trkpt lat="40.84183409919552" lon="14.587238355628276"><ele>388.99999999999994</ele><time>2026-04-12T09:02:36Z</time></trkpt><trkpt lat="40.84181086089569" lon="14.587326061960187"><ele>389.0</ele><time>2026-04-12T09:02:37Z</time></trkpt><trkpt lat="40.841753206903256" lon="14.587430629757637"><ele>376.0</ele><time>2026-04-12T09:02:39Z</time></trkpt><trkpt lat="40.84176716311184" lon="14.587523005073225"><ele>376.0</ele><time>2026-04-12T09:02:41Z</time></trkpt><trkpt lat="40.84174925020514" lon="14.58760812294147"><ele>376.0</ele><time>2026-04-12T09:02:43Z</time></trkpt><trkpt lat="40.84172637820804" lon="14.587697604170815"><ele>376.0</ele><time>2026-04-12T09:02:45Z</time></trkpt><trkpt lat="40.841712309488926" lon="14.587786363381907"><ele>376.0</ele><time>2026-04-12T09:02:46Z</time></trkpt><trkpt lat="40.841717525292026" lon="14.587876015606568"><ele>364.0</ele><time>2026-04-12T09:02:48Z</time></trkpt></trkseg></trk></gpx>